sensor_id;sensor_type;location;lat;lon;timestamp;temperature;humidity
75430;DHT22;64127;51.488;5.462;2023-11-22T00:02:27;6.50;99.90
75430;DHT22;64127;51.488;5.462;2023-11-22T00:05:01;6.40;99.90
75430;DHT22;64127;51.488;5.462;2023-11-22T00:07:33;6.40;99.90
75430;DHT22;64127;51.488;5.462;2023-11-22T00:10:07;6.40;99.90
75430;DHT22;64127;51.488;5.462;2023-11-22T00:12:40;6.40;99.90
75430;DHT22;64127;51.488;5.462;2023-11-22T00:15:13;6.40;99.90
75430;DHT22;64127;51.488;5.462;2023-11-22T00:17:49;6.40;99.90
75430;DHT22;64127;51.488;5.462;2023-11-22T00:20:21;6.40;99.90
75430;DHT22;64127;51.488;5.462;2023-11-22T00:22:53;6.40;99.90
75430;DHT22;64127;51.488;5.462;2023-11-22T00:25:26;6.30;99.90
75430;DHT22;64127;51.488;5.462;2023-11-22T00:27:58;6.30;99.90
75430;DHT22;64127;51.488;5.462;2023-11-22T00:30:30;6.30;99.90
75430;DHT22;64127;51.488;5.462;2023-11-22T00:33:02;6.30;99.90
75430;DHT22;64127;51.488;5.462;2023-11-22T00:35:34;6.30;99.90
75430;DHT22;64127;51.488;5.462;2023-11-22T00:38:06;6.20;99.90
75430;DHT22;64127;51.488;5.462;2023-11-22T00:40:38;6.20;99.90
75430;DHT22;64127;51.488;5.462;2023-11-22T00:43:10;6.20;99.90
75430;DHT22;64127;51.488;5.462;2023-11-22T00:45:42;6.20;99.90
75430;DHT22;64127;51.488;5.462;2023-11-22T00:48:14;6.10;99.90
75430;DHT22;64127;51.488;5.462;2023-11-22T00:50:46;6.10;99.90
75430;DHT22;64127;51.488;5.462;2023-11-22T00:53:18;6.10;99.90
75430;DHT22;64127;51.488;5.462;2023-11-22T00:55:50;6.10;99.90
75430;DHT22;64127;51.488;5.462;2023-11-22T00:58:22;6.10;99.90
75430;DHT22;64127;51.488;5.462;2023-11-22T01:00:54;6.00;99.90
75430;DHT22;64127;51.488;5.462;2023-11-22T01:03:27;6.00;99.90
75430;DHT22;64127;51.488;5.462;2023-11-22T01:05:59;6.00;99.90
75430;DHT22;64127;51.488;5.462;2023-11-22T01:08:31;6.00;99.90
75430;DHT22;64127;51.488;5.462;2023-11-22T01:11:03;6.00;99.90
75430;DHT22;64127;51.488;5.462;2023-11-22T01:13:35;6.00;99.90
75430;DHT22;64127;51.488;5.462;2023-11-22T01:16:12;5.90;99.90
75430;DHT22;64127;51.488;5.462;2023-11-22T01:18:44;5.90;99.90
75430;DHT22;64127;51.488;5.462;2023-11-22T01:21:18;5.90;99.90
75430;DHT22;64127;51.488;5.462;2023-11-22T01:23:51;5.90;99.90
75430;DHT22;64127;51.488;5.462;2023-11-22T01:26:23;5.90;99.90
75430;DHT22;64127;51.488;5.462;2023-11-22T01:28:55;5.80;99.90
75430;DHT22;64127;51.488;5.462;2023-11-22T01:31:27;5.90;99.90
75430;DHT22;64127;51.488;5.462;2023-11-22T01:33:59;5.80;99.90
75430;DHT22;64127;51.488;5.462;2023-11-22T01:36:31;5.80;99.90
75430;DHT22;64127;51.488;5.462;2023-11-22T01:39:04;5.70;99.90
75430;DHT22;64127;51.488;5.462;2023-11-22T01:41:36;5.70;99.90
75430;DHT22;64127;51.488;5.462;2023-11-22T01:44:08;5.70;99.90
75430;DHT22;64127;51.488;5.462;2023-11-22T01:46:42;5.70;99.90
75430;DHT22;64127;51.488;5.462;2023-11-22T01:49:14;5.70;99.90
75430;DHT22;64127;51.488;5.462;2023-11-22T01:51:46;5.70;99.90
75430;DHT22;64127;51.488;5.462;2023-11-22T01:54:19;5.60;99.90
75430;DHT22;64127;51.488;5.462;2023-11-22T01:56:53;5.60;99.90
75430;DHT22;64127;51.488;5.462;2023-11-22T01:59:27;5.60;99.90
75430;DHT22;64127;51.488;5.462;2023-11-22T02:02:01;5.60;99.90
75430;DHT22;64127;51.488;5.462;2023-11-22T02:04:33;5.60;99.90
75430;DHT22;64127;51.488;5.462;2023-11-22T02:07:05;5.50;99.90
75430;DHT22;64127;51.488;5.462;2023-11-22T02:09:37;5.50;99.90
75430;DHT22;64127;51.488;5.462;2023-11-22T02:12:09;5.50;99.90
75430;DHT22;64127;51.488;5.462;2023-11-22T02:14:41;5.50;99.90
75430;DHT22;64127;51.488;5.462;2023-11-22T02:17:13;5.50;99.90
75430;DHT22;64127;51.488;5.462;2023-11-22T02:19:45;5.50;99.90
75430;DHT22;64127;51.488;5.462;2023-11-22T02:22:17;5.40;99.90
75430;DHT22;64127;51.488;5.462;2023-11-22T02:24:49;5.40;99.90
75430;DHT22;64127;51.488;5.462;2023-11-22T02:27:21;5.40;99.90
75430;DHT22;64127;51.488;5.462;2023-11-22T02:29:53;5.40;99.90
75430;DHT22;64127;51.488;5.462;2023-11-22T02:32:26;5.40;99.90
75430;DHT22;64127;51.488;5.462;2023-11-22T02:34:59;5.40;99.90
75430;DHT22;64127;51.488;5.462;2023-11-22T02:37:32;5.40;99.90
75430;DHT22;64127;51.488;5.462;2023-11-22T02:40:17;5.30;99.90
75430;DHT22;64127;51.488;5.462;2023-11-22T02:42:52;5.30;99.90
75430;DHT22;64127;51.488;5.462;2023-11-22T02:45:28;5.30;99.90
75430;DHT22;64127;51.488;5.462;2023-11-22T02:48:01;5.20;99.90
75430;DHT22;64127;51.488;5.462;2023-11-22T02:50:36;5.20;99.90
75430;DHT22;64127;51.488;5.462;2023-11-22T02:53:15;5.20;99.90
75430;DHT22;64127;51.488;5.462;2023-11-22T02:55:47;5.10;99.90
75430;DHT22;64127;51.488;5.462;2023-11-22T02:58:19;5.10;99.90
75430;DHT22;64127;51.488;5.462;2023-11-22T03:00:51;5.10;99.90
75430;DHT22;64127;51.488;5.462;2023-11-22T03:03:26;5.10;99.90
75430;DHT22;64127;51.488;5.462;2023-11-22T03:05:59;5.00;99.90
75430;DHT22;64127;51.488;5.462;2023-11-22T03:08:31;5.00;99.90
75430;DHT22;64127;51.488;5.462;2023-11-22T03:11:04;5.00;99.90
75430;DHT22;64127;51.488;5.462;2023-11-22T03:13:36;5.00;99.90
75430;DHT22;64127;51.488;5.462;2023-11-22T03:16:09;5.00;99.90
75430;DHT22;64127;51.488;5.462;2023-11-22T03:18:42;4.90;99.90
75430;DHT22;64127;51.488;5.462;2023-11-22T03:21:14;4.90;99.90
75430;DHT22;64127;51.488;5.462;2023-11-22T03:23:46;4.90;99.90
75430;DHT22;64127;51.488;5.462;2023-11-22T03:26:18;4.90;99.90
75430;DHT22;64127;51.488;5.462;2023-11-22T03:28:51;4.80;99.90
75430;DHT22;64127;51.488;5.462;2023-11-22T03:31:24;4.80;99.90
75430;DHT22;64127;51.488;5.462;2023-11-22T03:33:58;4.80;99.90
75430;DHT22;64127;51.488;5.462;2023-11-22T03:36:30;4.70;99.90
75430;DHT22;64127;51.488;5.462;2023-11-22T03:39:02;4.70;99.90
75430;DHT22;64127;51.488;5.462;2023-11-22T03:41:34;4.70;99.90
75430;DHT22;64127;51.488;5.462;2023-11-22T03:44:07;4.70;99.90
75430;DHT22;64127;51.488;5.462;2023-11-22T03:46:40;4.70;99.90
75430;DHT22;64127;51.488;5.462;2023-11-22T03:49:12;4.70;99.90
75430;DHT22;64127;51.488;5.462;2023-11-22T03:51:47;4.70;99.90
75430;DHT22;64127;51.488;5.462;2023-11-22T03:54:19;4.60;99.90
75430;DHT22;64127;51.488;5.462;2023-11-22T03:56:51;4.60;99.90
75430;DHT22;64127;51.488;5.462;2023-11-22T03:59:23;4.60;99.90
75430;DHT22;64127;51.488;5.462;2023-11-22T04:01:56;4.60;99.90
75430;DHT22;64127;51.488;5.462;2023-11-22T04:04:28;4.60;99.90
75430;DHT22;64127;51.488;5.462;2023-11-22T04:07:02;4.60;99.90
75430;DHT22;64127;51.488;5.462;2023-11-22T04:09:34;4.50;99.90
75430;DHT22;64127;51.488;5.462;2023-11-22T04:12:06;4.60;99.90
75430;DHT22;64127;51.488;5.462;2023-11-22T04:14:38;4.50;99.90
75430;DHT22;64127;51.488;5.462;2023-11-22T04:17:11;4.50;99.90
75430;DHT22;64127;51.488;5.462;2023-11-22T04:19:44;4.50;99.90
75430;DHT22;64127;51.488;5.462;2023-11-22T04:22:16;4.40;99.90
75430;DHT22;64127;51.488;5.462;2023-11-22T04:24:48;4.40;99.90
75430;DHT22;64127;51.488;5.462;2023-11-22T04:27:20;4.40;99.90
75430;DHT22;64127;51.488;5.462;2023-11-22T04:29:52;4.40;99.90
75430;DHT22;64127;51.488;5.462;2023-11-22T04:32:25;4.30;99.90
75430;DHT22;64127;51.488;5.462;2023-11-22T04:34:57;4.30;99.90
75430;DHT22;64127;51.488;5.462;2023-11-22T04:37:30;4.30;99.90
75430;DHT22;64127;51.488;5.462;2023-11-22T04:40:04;4.30;99.90
75430;DHT22;64127;51.488;5.462;2023-11-22T04:42:39;4.30;99.90
75430;DHT22;64127;51.488;5.462;2023-11-22T04:45:11;4.30;99.90
75430;DHT22;64127;51.488;5.462;2023-11-22T04:47:44;4.20;99.90
75430;DHT22;64127;51.488;5.462;2023-11-22T04:50:16;4.20;99.90
75430;DHT22;64127;51.488;5.462;2023-11-22T04:52:49;4.20;99.90
75430;DHT22;64127;51.488;5.462;2023-11-22T04:55:22;4.20;99.90
75430;DHT22;64127;51.488;5.462;2023-11-22T04:57:57;4.20;99.90
75430;DHT22;64127;51.488;5.462;2023-11-22T05:00:29;4.10;99.90
75430;DHT22;64127;51.488;5.462;2023-11-22T05:03:01;4.10;99.90
75430;DHT22;64127;51.488;5.462;2023-11-22T05:05:33;4.20;99.90
75430;DHT22;64127;51.488;5.462;2023-11-22T05:08:05;4.10;99.90
75430;DHT22;64127;51.488;5.462;2023-11-22T05:10:37;4.10;99.90
75430;DHT22;64127;51.488;5.462;2023-11-22T05:13:10;4.10;99.90
75430;DHT22;64127;51.488;5.462;2023-11-22T05:15:42;4.00;99.90
75430;DHT22;64127;51.488;5.462;2023-11-22T05:18:14;4.00;99.90
75430;DHT22;64127;51.488;5.462;2023-11-22T05:20:46;4.00;99.90
75430;DHT22;64127;51.488;5.462;2023-11-22T05:23:20;4.00;99.90
75430;DHT22;64127;51.488;5.462;2023-11-22T05:25:52;4.00;99.90
75430;DHT22;64127;51.488;5.462;2023-11-22T05:28:24;3.90;99.90
75430;DHT22;64127;51.488;5.462;2023-11-22T05:30:56;4.00;99.90
75430;DHT22;64127;51.488;5.462;2023-11-22T05:33:28;3.90;99.90
75430;DHT22;64127;51.488;5.462;2023-11-22T05:36:00;3.90;99.90
75430;DHT22;64127;51.488;5.462;2023-11-22T05:38:32;3.90;99.90
75430;DHT22;64127;51.488;5.462;2023-11-22T05:41:07;3.90;99.90
75430;DHT22;64127;51.488;5.462;2023-11-22T05:43:39;3.90;99.90
75430;DHT22;64127;51.488;5.462;2023-11-22T05:46:14;3.90;99.90
75430;DHT22;64127;51.488;5.462;2023-11-22T05:48:48;3.90;99.90
75430;DHT22;64127;51.488;5.462;2023-11-22T05:51:23;3.90;99.90
75430;DHT22;64127;51.488;5.462;2023-11-22T05:53:56;4.00;99.90
75430;DHT22;64127;51.488;5.462;2023-11-22T05:56:28;4.00;99.90
75430;DHT22;64127;51.488;5.462;2023-11-22T05:59:00;4.00;99.90
75430;DHT22;64127;51.488;5.462;2023-11-22T06:01:32;4.10;99.90
75430;DHT22;64127;51.488;5.462;2023-11-22T06:04:05;4.10;99.90
75430;DHT22;64127;51.488;5.462;2023-11-22T06:06:40;4.20;99.90
75430;DHT22;64127;51.488;5.462;2023-11-22T06:09:12;4.30;99.90
75430;DHT22;64127;51.488;5.462;2023-11-22T06:11:46;4.30;99.90
75430;DHT22;64127;51.488;5.462;2023-11-22T06:14:18;4.30;99.90
75430;DHT22;64127;51.488;5.462;2023-11-22T06:16:51;4.40;99.90
75430;DHT22;64127;51.488;5.462;2023-11-22T06:19:24;4.40;99.90
75430;DHT22;64127;51.488;5.462;2023-11-22T06:21:56;4.40;99.90
75430;DHT22;64127;51.488;5.462;2023-11-22T06:24:29;4.50;99.90
75430;DHT22;64127;51.488;5.462;2023-11-22T06:27:01;4.50;99.90
75430;DHT22;64127;51.488;5.462;2023-11-22T06:29:33;4.50;99.90
75430;DHT22;64127;51.488;5.462;2023-11-22T06:32:06;4.60;99.90
75430;DHT22;64127;51.488;5.462;2023-11-22T06:34:38;4.60;99.90
75430;DHT22;64127;51.488;5.462;2023-11-22T06:37:11;4.60;99.90
75430;DHT22;64127;51.488;5.462;2023-11-22T06:39:43;4.60;99.90
75430;DHT22;64127;51.488;5.462;2023-11-22T06:42:15;4.60;99.90
75430;DHT22;64127;51.488;5.462;2023-11-22T06:44:48;4.60;99.90
75430;DHT22;64127;51.488;5.462;2023-11-22T06:47:20;4.60;99.90
75430;DHT22;64127;51.488;5.462;2023-11-22T06:49:52;4.60;99.90
75430;DHT22;64127;51.488;5.462;2023-11-22T06:52:25;4.60;99.90
75430;DHT22;64127;51.488;5.462;2023-11-22T06:54:57;4.70;99.90
75430;DHT22;64127;51.488;5.462;2023-11-22T06:57:29;4.70;99.90
75430;DHT22;64127;51.488;5.462;2023-11-22T07:00:01;4.70;99.90
75430;DHT22;64127;51.488;5.462;2023-11-22T07:02:37;4.80;99.90
75430;DHT22;64127;51.488;5.462;2023-11-22T07:05:09;4.80;99.90
75430;DHT22;64127;51.488;5.462;2023-11-22T07:07:42;4.70;99.90
75430;DHT22;64127;51.488;5.462;2023-11-22T07:10:14;4.70;99.90
75430;DHT22;64127;51.488;5.462;2023-11-22T07:12:47;4.70;99.90
75430;DHT22;64127;51.488;5.462;2023-11-22T07:15:19;4.70;99.90
75430;DHT22;64127;51.488;5.462;2023-11-22T07:17:52;4.70;99.90
75430;DHT22;64127;51.488;5.462;2023-11-22T07:20:26;4.70;99.90
75430;DHT22;64127;51.488;5.462;2023-11-22T07:22:58;4.70;99.90
75430;DHT22;64127;51.488;5.462;2023-11-22T07:25:32;4.70;99.90
75430;DHT22;64127;51.488;5.462;2023-11-22T07:28:05;4.60;99.90
75430;DHT22;64127;51.488;5.462;2023-11-22T07:30:37;4.70;99.90
75430;DHT22;64127;51.488;5.462;2023-11-22T07:33:12;4.70;99.90
75430;DHT22;64127;51.488;5.462;2023-11-22T07:35:44;4.70;99.90
75430;DHT22;64127;51.488;5.462;2023-11-22T07:38:17;4.70;99.90
75430;DHT22;64127;51.488;5.462;2023-11-22T07:40:49;4.70;99.90
75430;DHT22;64127;51.488;5.462;2023-11-22T07:43:22;4.80;99.90
75430;DHT22;64127;51.488;5.462;2023-11-22T07:45:54;4.70;99.90
75430;DHT22;64127;51.488;5.462;2023-11-22T07:48:26;4.70;99.90
75430;DHT22;64127;51.488;5.462;2023-11-22T07:50:59;4.70;99.90
75430;DHT22;64127;51.488;5.462;2023-11-22T07:53:31;4.70;99.90
75430;DHT22;64127;51.488;5.462;2023-11-22T07:56:06;4.80;99.90
75430;DHT22;64127;51.488;5.462;2023-11-22T07:58:38;4.80;99.90
75430;DHT22;64127;51.488;5.462;2023-11-22T08:01:10;4.80;99.90
75430;DHT22;64127;51.488;5.462;2023-11-22T08:03:45;4.80;99.90
75430;DHT22;64127;51.488;5.462;2023-11-22T08:06:19;4.80;99.90
75430;DHT22;64127;51.488;5.462;2023-11-22T08:08:52;4.90;99.90
75430;DHT22;64127;51.488;5.462;2023-11-22T08:11:25;4.90;99.90
75430;DHT22;64127;51.488;5.462;2023-11-22T08:13:59;4.90;99.90
75430;DHT22;64127;51.488;5.462;2023-11-22T08:16:31;4.90;99.90
75430;DHT22;64127;51.488;5.462;2023-11-22T08:19:04;5.00;99.90
75430;DHT22;64127;51.488;5.462;2023-11-22T08:21:39;5.10;99.90
75430;DHT22;64127;51.488;5.462;2023-11-22T08:24:11;5.10;99.90
75430;DHT22;64127;51.488;5.462;2023-11-22T08:26:45;5.10;99.90
75430;DHT22;64127;51.488;5.462;2023-11-22T08:29:17;5.10;99.90
75430;DHT22;64127;51.488;5.462;2023-11-22T08:31:49;5.20;99.90
75430;DHT22;64127;51.488;5.462;2023-11-22T08:34:22;5.20;99.90
75430;DHT22;64127;51.488;5.462;2023-11-22T08:36:54;5.20;99.90
75430;DHT22;64127;51.488;5.462;2023-11-22T08:39:29;5.20;99.90
75430;DHT22;64127;51.488;5.462;2023-11-22T08:42:01;5.20;99.90
75430;DHT22;64127;51.488;5.462;2023-11-22T08:44:36;5.20;99.90
75430;DHT22;64127;51.488;5.462;2023-11-22T08:47:08;5.20;99.90
75430;DHT22;64127;51.488;5.462;2023-11-22T08:49:40;5.30;99.90
75430;DHT22;64127;51.488;5.462;2023-11-22T08:52:13;5.30;99.90
75430;DHT22;64127;51.488;5.462;2023-11-22T08:54:45;5.30;99.90
75430;DHT22;64127;51.488;5.462;2023-11-22T08:57:18;5.40;99.90
75430;DHT22;64127;51.488;5.462;2023-11-22T08:59:50;5.40;99.90
75430;DHT22;64127;51.488;5.462;2023-11-22T09:02:26;5.40;99.90
75430;DHT22;64127;51.488;5.462;2023-11-22T09:04:58;5.40;99.90
75430;DHT22;64127;51.488;5.462;2023-11-22T09:07:31;5.40;99.90
75430;DHT22;64127;51.488;5.462;2023-11-22T09:10:04;5.40;99.90
75430;DHT22;64127;51.488;5.462;2023-11-22T09:12:43;5.50;99.90
75430;DHT22;64127;51.488;5.462;2023-11-22T09:15:16;5.50;99.90
75430;DHT22;64127;51.488;5.462;2023-11-22T09:17:50;5.60;99.90
75430;DHT22;64127;51.488;5.462;2023-11-22T09:20:24;5.60;99.90
75430;DHT22;64127;51.488;5.462;2023-11-22T09:22:56;5.60;99.90
75430;DHT22;64127;51.488;5.462;2023-11-22T09:25:28;5.60;99.90
75430;DHT22;64127;51.488;5.462;2023-11-22T09:28:00;5.60;99.90
75430;DHT22;64127;51.488;5.462;2023-11-22T09:30:32;5.70;99.90
75430;DHT22;64127;51.488;5.462;2023-11-22T09:33:07;5.70;99.90
75430;DHT22;64127;51.488;5.462;2023-11-22T09:35:41;5.80;99.90
75430;DHT22;64127;51.488;5.462;2023-11-22T09:38:16;5.70;99.90
75430;DHT22;64127;51.488;5.462;2023-11-22T09:40:49;5.80;99.90
75430;DHT22;64127;51.488;5.462;2023-11-22T09:43:22;5.90;99.90
75430;DHT22;64127;51.488;5.462;2023-11-22T09:45:56;5.90;99.90
75430;DHT22;64127;51.488;5.462;2023-11-22T09:48:31;6.00;99.90
75430;DHT22;64127;51.488;5.462;2023-11-22T09:54:12;6.00;99.90
75430;DHT22;64127;51.488;5.462;2023-11-22T09:56:39;6.00;99.90
75430;DHT22;64127;51.488;5.462;2023-11-22T09:59:14;6.10;99.90
75430;DHT22;64127;51.488;5.462;2023-11-22T10:01:46;6.10;99.90
75430;DHT22;64127;51.488;5.462;2023-11-22T10:04:18;6.10;99.90
75430;DHT22;64127;51.488;5.462;2023-11-22T10:06:51;6.10;99.90
75430;DHT22;64127;51.488;5.462;2023-11-22T10:09:23;6.10;99.90
75430;DHT22;64127;51.488;5.462;2023-11-22T10:12:02;6.20;99.90
75430;DHT22;64127;51.488;5.462;2023-11-22T10:14:34;6.20;99.90
75430;DHT22;64127;51.488;5.462;2023-11-22T10:17:06;6.30;99.90
75430;DHT22;64127;51.488;5.462;2023-11-22T10:19:39;6.30;99.90
75430;DHT22;64127;51.488;5.462;2023-11-22T10:22:12;6.30;99.90
75430;DHT22;64127;51.488;5.462;2023-11-22T10:24:49;6.40;99.90
75430;DHT22;64127;51.488;5.462;2023-11-22T10:27:21;6.50;99.90
75430;DHT22;64127;51.488;5.462;2023-11-22T10:29:55;6.60;99.90
75430;DHT22;64127;51.488;5.462;2023-11-22T10:32:27;6.70;99.90
75430;DHT22;64127;51.488;5.462;2023-11-22T10:35:00;6.80;99.90
75430;DHT22;64127;51.488;5.462;2023-11-22T10:37:32;6.80;99.90
75430;DHT22;64127;51.488;5.462;2023-11-22T10:40:04;6.80;99.90
75430;DHT22;64127;51.488;5.462;2023-11-22T10:42:42;6.80;99.90
75430;DHT22;64127;51.488;5.462;2023-11-22T10:45:17;6.90;99.90
75430;DHT22;64127;51.488;5.462;2023-11-22T10:47:50;6.90;99.90
75430;DHT22;64127;51.488;5.462;2023-11-22T10:50:24;6.90;99.90
75430;DHT22;64127;51.488;5.462;2023-11-22T10:52:57;7.00;99.90
75430;DHT22;64127;51.488;5.462;2023-11-22T10:55:33;7.00;99.90
75430;DHT22;64127;51.488;5.462;2023-11-22T10:58:06;7.10;99.90
75430;DHT22;64127;51.488;5.462;2023-11-22T11:00:41;7.10;99.90
75430;DHT22;64127;51.488;5.462;2023-11-22T11:03:18;7.20;99.90
75430;DHT22;64127;51.488;5.462;2023-11-22T11:06:02;7.40;99.90
75430;DHT22;64127;51.488;5.462;2023-11-22T11:08:37;7.60;99.90
75430;DHT22;64127;51.488;5.462;2023-11-22T11:11:10;7.80;99.90
75430;DHT22;64127;51.488;5.462;2023-11-22T11:13:44;8.00;99.90
75430;DHT22;64127;51.488;5.462;2023-11-22T11:16:17;8.20;99.90
75430;DHT22;64127;51.488;5.462;2023-11-22T11:18:49;8.40;99.90
75430;DHT22;64127;51.488;5.462;2023-11-22T11:21:22;8.60;99.90
75430;DHT22;64127;51.488;5.462;2023-11-22T11:23:55;8.80;99.90
75430;DHT22;64127;51.488;5.462;2023-11-22T11:26:34;8.90;99.90
75430;DHT22;64127;51.488;5.462;2023-11-22T11:29:06;9.10;99.90
75430;DHT22;64127;51.488;5.462;2023-11-22T11:32:03;9.10;99.90
75430;DHT22;64127;51.488;5.462;2023-11-22T11:34:48;9.00;99.90
75430;DHT22;64127;51.488;5.462;2023-11-22T11:37:23;9.00;99.90
75430;DHT22;64127;51.488;5.462;2023-11-22T11:39:55;8.80;99.90
75430;DHT22;64127;51.488;5.462;2023-11-22T11:42:30;8.90;99.90
75430;DHT22;64127;51.488;5.462;2023-11-22T11:45:03;8.90;99.90
75430;DHT22;64127;51.488;5.462;2023-11-22T11:47:38;9.00;99.90
75430;DHT22;64127;51.488;5.462;2023-11-22T11:50:10;9.10;99.90
75430;DHT22;64127;51.488;5.462;2023-11-22T11:52:43;9.10;99.90
75430;DHT22;64127;51.488;5.462;2023-11-22T11:55:15;9.10;99.90
75430;DHT22;64127;51.488;5.462;2023-11-22T11:57:48;9.00;99.90
75430;DHT22;64127;51.488;5.462;2023-11-22T12:00:20;8.90;99.90
75430;DHT22;64127;51.488;5.462;2023-11-22T12:02:55;8.80;99.90
75430;DHT22;64127;51.488;5.462;2023-11-22T12:05:27;8.80;99.90
75430;DHT22;64127;51.488;5.462;2023-11-22T12:07:59;8.70;99.90
75430;DHT22;64127;51.488;5.462;2023-11-22T12:10:32;8.60;99.90
75430;DHT22;64127;51.488;5.462;2023-11-22T12:13:04;8.40;99.90
75430;DHT22;64127;51.488;5.462;2023-11-22T12:15:36;8.20;99.90
75430;DHT22;64127;51.488;5.462;2023-11-22T12:18:08;8.10;99.90
75430;DHT22;64127;51.488;5.462;2023-11-22T12:20:40;8.00;99.90
75430;DHT22;64127;51.488;5.462;2023-11-22T12:23:14;7.90;99.90
75430;DHT22;64127;51.488;5.462;2023-11-22T12:25:46;7.90;99.90
75430;DHT22;64127;51.488;5.462;2023-11-22T12:28:18;7.80;99.90
75430;DHT22;64127;51.488;5.462;2023-11-22T12:30:52;7.70;99.90
75430;DHT22;64127;51.488;5.462;2023-11-22T12:33:26;7.70;99.90
75430;DHT22;64127;51.488;5.462;2023-11-22T12:35:59;7.70;99.90
75430;DHT22;64127;51.488;5.462;2023-11-22T12:38:31;7.80;99.90
75430;DHT22;64127;51.488;5.462;2023-11-22T12:41:05;7.80;99.90
75430;DHT22;64127;51.488;5.462;2023-11-22T12:43:38;7.80;99.90
75430;DHT22;64127;51.488;5.462;2023-11-22T12:46:21;7.80;99.90
75430;DHT22;64127;51.488;5.462;2023-11-22T12:49:05;7.90;99.90
75430;DHT22;64127;51.488;5.462;2023-11-22T12:51:37;8.00;99.90
75430;DHT22;64127;51.488;5.462;2023-11-22T12:54:11;7.90;99.90
75430;DHT22;64127;51.488;5.462;2023-11-22T12:56:43;7.90;99.90
75430;DHT22;64127;51.488;5.462;2023-11-22T12:59:15;7.80;99.90
75430;DHT22;64127;51.488;5.462;2023-11-22T13:01:47;7.80;99.90
75430;DHT22;64127;51.488;5.462;2023-11-22T13:04:19;7.80;99.90
75430;DHT22;64127;51.488;5.462;2023-11-22T13:06:52;7.90;99.90
75430;DHT22;64127;51.488;5.462;2023-11-22T13:09:26;8.00;99.90
75430;DHT22;64127;51.488;5.462;2023-11-22T13:11:58;8.10;99.90
75430;DHT22;64127;51.488;5.462;2023-11-22T13:14:30;7.90;99.90
75430;DHT22;64127;51.488;5.462;2023-11-22T13:17:09;7.80;99.90
75430;DHT22;64127;51.488;5.462;2023-11-22T13:19:42;7.70;99.90
75430;DHT22;64127;51.488;5.462;2023-11-22T13:22:15;7.60;99.90
75430;DHT22;64127;51.488;5.462;2023-11-22T13:24:47;7.50;99.90
75430;DHT22;64127;51.488;5.462;2023-11-22T13:27:19;7.60;99.90
75430;DHT22;64127;51.488;5.462;2023-11-22T13:29:52;7.80;99.90
75430;DHT22;64127;51.488;5.462;2023-11-22T13:32:24;7.80;99.90
75430;DHT22;64127;51.488;5.462;2023-11-22T13:34:58;7.80;99.90
75430;DHT22;64127;51.488;5.462;2023-11-22T13:37:30;7.60;99.90
75430;DHT22;64127;51.488;5.462;2023-11-22T13:40:03;7.40;99.90
75430;DHT22;64127;51.488;5.462;2023-11-22T13:42:35;7.30;99.90
75430;DHT22;64127;51.488;5.462;2023-11-22T13:45:07;7.20;99.90
75430;DHT22;64127;51.488;5.462;2023-11-22T13:47:40;7.10;99.90
75430;DHT22;64127;51.488;5.462;2023-11-22T13:50:16;7.10;99.90
75430;DHT22;64127;51.488;5.462;2023-11-22T13:52:55;7.10;99.90
75430;DHT22;64127;51.488;5.462;2023-11-22T13:55:28;7.10;99.90
75430;DHT22;64127;51.488;5.462;2023-11-22T13:58:00;7.00;99.90
75430;DHT22;64127;51.488;5.462;2023-11-22T14:00:32;7.10;99.90
75430;DHT22;64127;51.488;5.462;2023-11-22T14:03:07;7.00;99.90
75430;DHT22;64127;51.488;5.462;2023-11-22T14:05:42;7.00;99.90
75430;DHT22;64127;51.488;5.462;2023-11-22T14:08:14;7.00;99.90
75430;DHT22;64127;51.488;5.462;2023-11-22T14:10:48;6.90;99.90
75430;DHT22;64127;51.488;5.462;2023-11-22T14:13:20;6.90;99.90
75430;DHT22;64127;51.488;5.462;2023-11-22T14:15:53;6.80;99.90
75430;DHT22;64127;51.488;5.462;2023-11-22T14:18:25;6.80;99.90
75430;DHT22;64127;51.488;5.462;2023-11-22T14:20:57;6.70;99.90
75430;DHT22;64127;51.488;5.462;2023-11-22T14:23:32;6.70;99.90
75430;DHT22;64127;51.488;5.462;2023-11-22T14:26:05;6.70;99.90
75430;DHT22;64127;51.488;5.462;2023-11-22T14:28:37;6.70;99.90
75430;DHT22;64127;51.488;5.462;2023-11-22T14:31:09;6.70;99.90
75430;DHT22;64127;51.488;5.462;2023-11-22T14:33:44;6.70;99.90
75430;DHT22;64127;51.488;5.462;2023-11-22T14:36:16;6.70;99.90
75430;DHT22;64127;51.488;5.462;2023-11-22T14:38:48;6.70;99.90
75430;DHT22;64127;51.488;5.462;2023-11-22T14:41:25;6.70;99.90
75430;DHT22;64127;51.488;5.462;2023-11-22T14:44:00;6.70;99.90
75430;DHT22;64127;51.488;5.462;2023-11-22T14:46:32;6.70;99.90
75430;DHT22;64127;51.488;5.462;2023-11-22T14:49:04;6.70;99.90
75430;DHT22;64127;51.488;5.462;2023-11-22T14:51:37;6.70;99.90
75430;DHT22;64127;51.488;5.462;2023-11-22T14:54:09;6.60;99.90
75430;DHT22;64127;51.488;5.462;2023-11-22T14:56:42;6.60;99.90
75430;DHT22;64127;51.488;5.462;2023-11-22T14:59:14;6.60;99.90
75430;DHT22;64127;51.488;5.462;2023-11-22T15:01:47;6.60;99.90
75430;DHT22;64127;51.488;5.462;2023-11-22T15:04:19;6.60;99.90
75430;DHT22;64127;51.488;5.462;2023-11-22T15:06:51;6.50;99.90
75430;DHT22;64127;51.488;5.462;2023-11-22T15:09:23;6.60;99.90
75430;DHT22;64127;51.488;5.462;2023-11-22T15:11:56;6.60;99.90
75430;DHT22;64127;51.488;5.462;2023-11-22T15:14:28;6.60;99.90
75430;DHT22;64127;51.488;5.462;2023-11-22T15:17:01;6.60;99.90
75430;DHT22;64127;51.488;5.462;2023-11-22T15:19:35;6.60;99.90
75430;DHT22;64127;51.488;5.462;2023-11-22T15:22:09;6.60;99.90
75430;DHT22;64127;51.488;5.462;2023-11-22T15:24:41;6.60;99.90
75430;DHT22;64127;51.488;5.462;2023-11-22T15:27:13;6.60;99.90
75430;DHT22;64127;51.488;5.462;2023-11-22T15:29:45;6.60;99.90
75430;DHT22;64127;51.488;5.462;2023-11-22T15:32:18;6.70;99.90
75430;DHT22;64127;51.488;5.462;2023-11-22T15:34:49;6.70;99.90
75430;DHT22;64127;51.488;5.462;2023-11-22T15:37:21;6.60;99.90
75430;DHT22;64127;51.488;5.462;2023-11-22T15:39:53;6.60;99.90
75430;DHT22;64127;51.488;5.462;2023-11-22T15:42:27;6.60;99.90
75430;DHT22;64127;51.488;5.462;2023-11-22T15:44:59;6.70;99.90
75430;DHT22;64127;51.488;5.462;2023-11-22T15:47:31;6.60;99.90
75430;DHT22;64127;51.488;5.462;2023-11-22T15:50:03;6.60;99.90
75430;DHT22;64127;51.488;5.462;2023-11-22T15:52:38;6.60;99.90
75430;DHT22;64127;51.488;5.462;2023-11-22T15:55:10;6.60;99.90
75430;DHT22;64127;51.488;5.462;2023-11-22T15:57:42;6.60;99.90
75430;DHT22;64127;51.488;5.462;2023-11-22T16:00:15;6.60;99.90
75430;DHT22;64127;51.488;5.462;2023-11-22T16:02:48;6.60;99.90
75430;DHT22;64127;51.488;5.462;2023-11-22T16:05:20;6.60;99.90
75430;DHT22;64127;51.488;5.462;2023-11-22T16:07:54;6.60;99.90
75430;DHT22;64127;51.488;5.462;2023-11-22T16:10:26;6.60;99.90
75430;DHT22;64127;51.488;5.462;2023-11-22T16:12:58;6.60;99.90
75430;DHT22;64127;51.488;5.462;2023-11-22T16:15:30;6.60;99.90
75430;DHT22;64127;51.488;5.462;2023-11-22T16:18:02;6.60;99.90
75430;DHT22;64127;51.488;5.462;2023-11-22T16:20:35;6.60;99.90
75430;DHT22;64127;51.488;5.462;2023-11-22T16:23:07;6.60;99.90
75430;DHT22;64127;51.488;5.462;2023-11-22T16:25:39;6.60;99.90